^^
Daily Summary for June 18, 2021 Units:  Both    English   Metric
Daily Weekly Monthly Yearly Custom
  High: Low: Average:
Temperature: 108.0 °F /  42.2 °C 70.0 °F /  21.1 °C 88.1 °F /  31.2 °C
Dew Point: 53.0 °F /  11.7 °C 34.0 °F /  1.1 °C 43.6 °F /  6.4 °C
Humidity: 44% 8% 24%
Wind Speed: 18mph /  29km/h - 3.1mph /  5km/h
Wind Gust: 17mph /  27.4km/h - -
Wind- - South
Pressure: 29.8 in /  1009 hPa 29.7 in /  1005.6 hPa -
Precipitation: 0.000 in /  0 mm    
Historical Graphs
 
 
Tabular Data for June 18, 2021
Time Temperature Dew Point Pressure Wind Wind Speed Wind Gust Humidity Rainfall Rate (Hourly) solar
00:04 76.0 °F /  24.4 °C 38.0 °F /  3.3 °C 29.8in /  1009hPa Calm     26% 0.000in /  0mm 0.00 W/m2
00:09 75.0 °F /  23.9 °C 39.0 °F /  3.9 °C 29.8in /  1009hPa Calm     27% 0.000in /  0mm 0.00 W/m2
00:14 75.0 °F /  23.9 °C 38.0 °F /  3.3 °C 29.8in /  1009hPa Calm     26% 0.000in /  0mm 0.00 W/m2
00:19 75.0 °F /  23.9 °C 39.0 °F /  3.9 °C 29.8in /  1009hPa Calm     27% 0.000in /  0mm 0.00 W/m2
00:24 75.0 °F /  23.9 °C 39.0 °F /  3.9 °C 29.8in /  1009hPa Calm     27% 0.000in /  0mm 0.00 W/m2
00:29 75.0 °F /  23.9 °C 39.0 °F /  3.9 °C 29.8in /  1009hPa Calm     28% 0.000in /  0mm 0.00 W/m2
00:34 75.0 °F /  23.9 °C 39.0 °F /  3.9 °C 29.8in /  1009hPa Calm     28% 0.000in /  0mm 0.00 W/m2
00:39 75.0 °F /  23.9 °C 39.0 °F /  3.9 °C 29.8in /  1009hPa SSW 2mph /  3.2km/h   28% 0.000in /  0mm 0.00 W/m2
00:44 74.0 °F /  23.3 °C 40.0 °F /  4.4 °C 29.8in /  1009hPa SSW 2mph /  3.2km/h 2mph /  3.2km/h 29% 0.000in /  0mm 0.00 W/m2
00:49 74.0 °F /  23.3 °C 39.0 °F /  3.9 °C 29.8in /  1009hPa SE 4mph /  6.4km/h 2mph /  3.2km/h 28% 0.000in /  0mm 0.00 W/m2
00:54 74.0 °F /  23.3 °C 40.0 °F /  4.4 °C 29.8in /  1009hPa ESE 2mph /  3.2km/h 3mph /  4.8km/h 29% 0.000in /  0mm 0.00 W/m2
00:59 74.0 °F /  23.3 °C 42.0 °F /  5.6 °C 29.8in /  1009hPa Calm   2mph /  3.2km/h 31% 0.000in /  0mm 0.00 W/m2
01:04 74.0 °F /  23.3 °C 42.0 °F /  5.6 °C 29.8in /  1009hPa Calm     31% 0.000in /  0mm 0.00 W/m2
01:09 74.0 °F /  23.3 °C 40.0 °F /  4.4 °C 29.8in /  1009hPa ESE 2mph /  3.2km/h   29% 0.000in /  0mm 0.00 W/m2
01:14 74.0 °F /  23.3 °C 40.0 °F /  4.4 °C 29.8in /  1009hPa Calm   2mph /  3.2km/h 30% 0.000in /  0mm 0.00 W/m2
01:19 74.0 °F /  23.3 °C 40.0 °F /  4.4 °C 29.8in /  1009hPa ESE 2mph /  3.2km/h   30% 0.000in /  0mm 0.00 W/m2
01:24 74.0 °F /  23.3 °C 40.0 °F /  4.4 °C 29.8in /  1009hPa Calm   2mph /  3.2km/h 30% 0.000in /  0mm 0.00 W/m2
01:29 74.0 °F /  23.3 °C 40.0 °F /  4.4 °C 29.8in /  1009hPa Calm     30% 0.000in /  0mm 0.00 W/m2
01:34 73.0 °F /  22.8 °C 41.0 °F /  5 °C 29.8in /  1009hPa Calm     31% 0.000in /  0mm 0.00 W/m2
01:39 73.0 °F /  22.8 °C 40.0 °F /  4.4 °C 29.8in /  1009hPa Calm     30% 0.000in /  0mm 0.00 W/m2
01:44 73.0 °F /  22.8 °C 40.0 °F /  4.4 °C 29.8in /  1009hPa Calm     30% 0.000in /  0mm 0.00 W/m2
01:49 73.0 °F /  22.8 °C 41.0 °F /  5 °C 29.8in /  1009hPa Calm     32% 0.000in /  0mm 0.00 W/m2
01:54 73.0 °F /  22.8 °C 42.0 °F /  5.6 °C 29.8in /  1009hPa Calm     33% 0.000in /  0mm 0.00 W/m2
01:59 73.0 °F /  22.8 °C 41.0 °F /  5 °C 29.8in /  1009hPa Calm     32% 0.000in /  0mm 0.00 W/m2
02:04 73.0 °F /  22.8 °C 41.0 °F /  5 °C 29.8in /  1009hPa Calm     32% 0.000in /  0mm 0.00 W/m2
02:09 73.0 °F /  22.8 °C 41.0 °F /  5 °C 29.8in /  1009hPa Calm     31% 0.000in /  0mm 0.00 W/m2
02:14 73.0 °F /  22.8 °C 40.0 °F /  4.4 °C 29.8in /  1009hPa Calm     31% 0.000in /  0mm 0.00 W/m2
02:19 73.0 °F /  22.8 °C 41.0 °F /  5 °C 29.8in /  1009hPa Calm     32% 0.000in /  0mm 0.00 W/m2
02:24 73.0 °F /  22.8 °C 41.0 °F /  5 °C 29.8in /  1009hPa Calm     32% 0.000in /  0mm 0.00 W/m2
02:29 73.0 °F /  22.8 °C 41.0 °F /  5 °C 29.8in /  1009hPa ESE 2mph /  3.2km/h   32% 0.000in /  0mm 0.00 W/m2
02:34 72.0 °F /  22.2 °C 41.0 °F /  5 °C 29.8in /  1009hPa ESE 2mph /  3.2km/h 2mph /  3.2km/h 32% 0.000in /  0mm 0.00 W/m2
02:39 72.0 °F /  22.2 °C 41.0 °F /  5 °C 29.8in /  1009hPa ESE 2mph /  3.2km/h   32% 0.000in /  0mm 0.00 W/m2
02:44 72.0 °F /  22.2 °C 41.0 °F /  5 °C 29.8in /  1009hPa ESE 2mph /  3.2km/h 2mph /  3.2km/h 32% 0.000in /  0mm 0.00 W/m2
02:49 72.0 °F /  22.2 °C 41.0 °F /  5 °C 29.8in /  1009hPa ESE 2mph /  3.2km/h   32% 0.000in /  0mm 0.00 W/m2
02:53 72.0 °F /  22.2 °C 41.0 °F /  5 °C 29.8in /  1009hPa Calm   2mph /  3.2km/h 33% 0.000in /  0mm 0.00 W/m2
02:59 72.0 °F /  22.2 °C 40.0 °F /  4.4 °C 29.8in /  1009hPa Calm     32% 0.000in /  0mm 0.00 W/m2
03:04 72.0 °F /  22.2 °C 40.0 °F /  4.4 °C 29.8in /  1009hPa ESE 2mph /  3.2km/h   32% 0.000in /  0mm 0.00 W/m2
03:09 72.0 °F /  22.2 °C 41.0 °F /  5 °C 29.8in /  1009hPa Calm   2mph /  3.2km/h 33% 0.000in /  0mm 0.00 W/m2
03:14 72.0 °F /  22.2 °C 41.0 °F /  5 °C 29.8in /  1009hPa ESE 2mph /  3.2km/h   33% 0.000in /  0mm 0.00 W/m2
03:19 72.0 °F /  22.2 °C 40.0 °F /  4.4 °C 29.8in /  1009hPa ESE 2mph /  3.2km/h 2mph /  3.2km/h 32% 0.000in /  0mm 0.00 W/m2
03:24 72.0 °F /  22.2 °C 41.0 °F /  5 °C 29.8in /  1009hPa Calm   2mph /  3.2km/h 33% 0.000in /  0mm 0.00 W/m2
03:29 72.0 °F /  22.2 °C 42.0 °F /  5.6 °C 29.8in /  1009hPa Calm     34% 0.000in /  0mm 0.00 W/m2
03:34 71.0 °F /  21.7 °C 41.0 °F /  5 °C 29.8in /  1009hPa Calm     33% 0.000in /  0mm 0.00 W/m2
03:39 71.0 °F /  21.7 °C 40.0 °F /  4.4 °C 29.8in /  1009hPa Calm     32% 0.000in /  0mm 0.00 W/m2
03:44 71.0 °F /  21.7 °C 41.0 °F /  5 °C 29.8in /  1009hPa Calm     33% 0.000in /  0mm 0.00 W/m2
03:49 71.0 °F /  21.7 °C 41.0 °F /  5 °C 29.8in /  1009hPa Calm     33% 0.000in /  0mm 0.00 W/m2
03:54 71.0 °F /  21.7 °C 41.0 °F /  5 °C 29.8in /  1009hPa ESE 2mph /  3.2km/h   33% 0.000in /  0mm 0.00 W/m2
03:59 71.0 °F /  21.7 °C 41.0 °F /  5 °C 29.8in /  1009hPa Calm   2mph /  3.2km/h 33% 0.000in /  0mm 0.00 W/m2
04:04 71.0 °F /  21.7 °C 42.0 °F /  5.6 °C 29.8in /  1009hPa Calm     35% 0.000in /  0mm 0.00 W/m2
04:09 71.0 °F /  21.7 °C 42.0 °F /  5.6 °C 29.8in /  1009hPa Calm     35% 0.000in /  0mm 0.00 W/m2
04:14 71.0 °F /  21.7 °C 41.0 °F /  5 °C 29.8in /  1009hPa Calm     33% 0.000in /  0mm 0.00 W/m2
04:19 71.0 °F /  21.7 °C 41.0 °F /  5 °C 29.8in /  1009hPa East 2mph /  3.2km/h 1mph /  1.6km/h 33% 0.000in /  0mm 0.00 W/m2
04:24 71.0 °F /  21.7 °C 41.0 °F /  5 °C 29.8in /  1009hPa Calm   2mph /  3.2km/h 34% 0.000in /  0mm 0.00 W/m2
04:29 71.0 °F /  21.7 °C 41.0 °F /  5 °C 29.8in /  1009hPa East 2mph /  3.2km/h 1mph /  1.6km/h 34% 0.000in /  0mm 0.00 W/m2
04:34 71.0 °F /  21.7 °C 41.0 °F /  5 °C 29.8in /  1009hPa Calm   2mph /  3.2km/h 33% 0.000in /  0mm 0.00 W/m2
04:39 71.0 °F /  21.7 °C 41.0 °F /  5 °C 29.8in /  1009hPa Calm     33% 0.000in /  0mm 0.00 W/m2
04:44 71.0 °F /  21.7 °C 41.0 °F /  5 °C 29.8in /  1009hPa Calm     33% 0.000in /  0mm 0.00 W/m2
04:49 71.0 °F /  21.7 °C 40.0 °F /  4.4 °C 29.8in /  1009hPa Calm     33% 0.000in /  0mm 0.00 W/m2
04:54 71.0 °F /  21.7 °C 40.0 °F /  4.4 °C 29.8in /  1009hPa East 2mph /  3.2km/h   33% 0.000in /  0mm 0.00 W/m2
04:59 71.0 °F /  21.7 °C 40.0 °F /  4.4 °C 29.8in /  1009hPa Calm   2mph /  3.2km/h 33% 0.000in /  0mm 0.00 W/m2
05:04 71.0 °F /  21.7 °C 40.0 °F /  4.4 °C 29.8in /  1009hPa Calm     33% 0.000in /  0mm 0.00 W/m2
05:09 71.0 °F /  21.7 °C 40.0 °F /  4.4 °C 29.8in /  1009hPa East 4mph /  6.4km/h 1mph /  1.6km/h 33% 0.000in /  0mm 0.00 W/m2
05:14 71.0 °F /  21.7 °C 40.0 °F /  4.4 °C 29.8in /  1009hPa NE 4mph /  6.4km/h 3mph /  4.8km/h 33% 0.000in /  0mm 0.00 W/m2
05:19 71.0 °F /  21.7 °C 40.0 °F /  4.4 °C 29.8in /  1009hPa NE 2mph /  3.2km/h 3mph /  4.8km/h 33% 0.000in /  0mm 0.00 W/m2
05:24 70.0 °F /  21.1 °C 40.0 °F /  4.4 °C 29.8in /  1009hPa Calm   2mph /  3.2km/h 33% 0.000in /  0mm 0.00 W/m2
05:29 70.0 °F /  21.1 °C 40.0 °F /  4.4 °C 29.8in /  1009hPa Calm     33% 0.000in /  0mm 0.00 W/m2
05:34 70.0 °F /  21.1 °C 40.0 °F /  4.4 °C 29.8in /  1009hPa Calm     33% 0.000in /  0mm 0.00 W/m2
05:39 70.0 °F /  21.1 °C 41.0 °F /  5 °C 29.8in /  1009hPa NE 2mph /  3.2km/h   34% 0.000in /  0mm 0.00 W/m2
05:44 70.0 °F /  21.1 °C 40.0 °F /  4.4 °C 29.8in /  1009hPa NE 2mph /  3.2km/h 2mph /  3.2km/h 34% 0.000in /  0mm 0.00 W/m2
05:49 70.0 °F /  21.1 °C 40.0 °F /  4.4 °C 29.8in /  1009hPa NE 2mph /  3.2km/h 2mph /  3.2km/h 34% 0.000in /  0mm 5.00 W/m2
05:54 70.0 °F /  21.1 °C 40.0 °F /  4.4 °C 29.8in /  1009hPa Calm   2mph /  3.2km/h 34% 0.000in /  0mm 5.00 W/m2
05:59 70.0 °F /  21.1 °C 40.0 °F /  4.4 °C 29.8in /  1009hPa Calm     34% 0.000in /  0mm 7.00 W/m2
06:04 70.0 °F /  21.1 °C 40.0 °F /  4.4 °C 29.8in /  1009hPa Calm     34% 0.000in /  0mm 9.00 W/m2
06:09 70.0 °F /  21.1 °C 40.0 °F /  4.4 °C 29.8in /  1009hPa Calm     34% 0.000in /  0mm 9.00 W/m2
06:14 70.0 °F /  21.1 °C 42.0 °F /  5.6 °C 29.8in /  1009hPa Calm     36% 0.000in /  0mm 11.00 W/m2
06:19 70.0 °F /  21.1 °C 43.0 °F /  6.1 °C 29.8in /  1009hPa Calm     38% 0.000in /  0mm 11.00 W/m2
06:24 70.0 °F /  21.1 °C 43.0 °F /  6.1 °C 29.8in /  1009hPa Calm     38% 0.000in /  0mm 12.00 W/m2
06:29 70.0 °F /  21.1 °C 43.0 °F /  6.1 °C 29.8in /  1009hPa Calm     37% 0.000in /  0mm 12.00 W/m2
06:34 70.0 °F /  21.1 °C 43.0 °F /  6.1 °C 29.8in /  1009hPa Calm     37% 0.000in /  0mm 14.00 W/m2
06:39 70.0 °F /  21.1 °C 43.0 °F /  6.1 °C 29.8in /  1009hPa Calm     38% 0.000in /  0mm 16.00 W/m2
06:44 70.0 °F /  21.1 °C 43.0 °F /  6.1 °C 29.8in /  1009hPa Calm     38% 0.000in /  0mm 18.00 W/m2
06:49 70.0 °F /  21.1 °C 45.0 °F /  7.2 °C 29.8in /  1009hPa Calm     40% 0.000in /  0mm 18.00 W/m2
06:54 71.0 °F /  21.7 °C 44.0 °F /  6.7 °C 29.8in /  1009hPa Calm     39% 0.000in /  0mm 19.00 W/m2
06:59 71.0 °F /  21.7 °C 45.0 °F /  7.2 °C 29.8in /  1009hPa Calm     40% 0.000in /  0mm 19.00 W/m2
07:04 71.0 °F /  21.7 °C 45.0 °F /  7.2 °C 29.8in /  1009hPa Calm     40% 0.000in /  0mm 21.00 W/m2
07:09 71.0 °F /  21.7 °C 46.0 °F /  7.8 °C 29.8in /  1009hPa Calm     41% 0.000in /  0mm 23.00 W/m2
07:14 71.0 °F /  21.7 °C 46.0 °F /  7.8 °C 29.8in /  1009hPa Calm     41% 0.000in /  0mm 23.00 W/m2
07:19 71.0 °F /  21.7 °C 46.0 °F /  7.8 °C 29.8in /  1009hPa Calm     41% 0.000in /  0mm 25.00 W/m2
07:24 71.0 °F /  21.7 °C 47.0 °F /  8.3 °C 29.8in /  1009hPa Calm     42% 0.000in /  0mm 25.00 W/m2
07:29 72.0 °F /  22.2 °C 46.0 °F /  7.8 °C 29.8in /  1009hPa Calm     40% 0.000in /  0mm 26.00 W/m2
07:34 72.0 °F /  22.2 °C 46.0 °F /  7.8 °C 29.8in /  1009hPa Calm     40% 0.000in /  0mm 28.00 W/m2
07:39 72.0 °F /  22.2 °C 47.0 °F /  8.3 °C 29.8in /  1009hPa Calm     41% 0.000in /  0mm 30.00 W/m2
07:44 72.0 °F /  22.2 °C 48.0 °F /  8.9 °C 29.8in /  1009hPa Calm     42% 0.000in /  0mm 30.00 W/m2
07:49 72.0 °F /  22.2 °C 49.0 °F /  9.4 °C 29.8in /  1009hPa NE 2mph /  3.2km/h   43% 0.000in /  0mm 33.00 W/m2
07:54 73.0 °F /  22.8 °C 49.0 °F /  9.4 °C 29.8in /  1009hPa Calm   2mph /  3.2km/h 44% 0.000in /  0mm 39.00 W/m2
07:59 73.0 °F /  22.8 °C 49.0 °F /  9.4 °C 29.8in /  1009hPa NE 2mph /  3.2km/h   43% 0.000in /  0mm 39.00 W/m2
08:04 74.0 °F /  23.3 °C 49.0 °F /  9.4 °C 29.8in /  1009hPa Calm   2mph /  3.2km/h 42% 0.000in /  0mm 39.00 W/m2
08:09 74.0 °F /  23.3 °C 50.0 °F /  10 °C 29.8in /  1009hPa Calm     43% 0.000in /  0mm 149.00 W/m2
08:14 75.0 °F /  23.9 °C 51.0 °F /  10.6 °C 29.8in /  1009hPa Calm     43% 0.000in /  0mm 42.00 W/m2
08:19 75.0 °F /  23.9 °C 51.0 °F /  10.6 °C 29.8in /  1009hPa Calm     43% 0.000in /  0mm 44.00 W/m2
08:24 76.0 °F /  24.4 °C 50.0 °F /  10 °C 29.8in /  1009hPa Calm     41% 0.000in /  0mm 67.00 W/m2
08:29 76.0 °F /  24.4 °C 51.0 °F /  10.6 °C 29.8in /  1009hPa Calm     42% 0.000in /  0mm 130.00 W/m2
08:34 77.0 °F /  25 °C 51.0 °F /  10.6 °C 29.8in /  1009hPa NE 2mph /  3.2km/h   41% 0.000in /  0mm 125.00 W/m2
08:39 78.0 °F /  25.6 °C 51.0 °F /  10.6 °C 29.8in /  1009hPa NE 2mph /  3.2km/h 2mph /  3.2km/h 40% 0.000in /  0mm 116.00 W/m2
08:44 79.0 °F /  26.1 °C 52.0 °F /  11.1 °C 29.8in /  1009hPa Calm   2mph /  3.2km/h 40% 0.000in /  0mm 527.00 W/m2
08:49 79.0 °F /  26.1 °C 52.0 °F /  11.1 °C 29.8in /  1009hPa Calm     40% 0.000in /  0mm 541.00 W/m2
08:54 80.0 °F /  26.7 °C 52.0 °F /  11.1 °C 29.8in /  1009hPa Calm     38% 0.000in /  0mm 557.00 W/m2
08:59 81.0 °F /  27.2 °C 52.0 °F /  11.1 °C 29.8in /  1009hPa Calm     37% 0.000in /  0mm 573.00 W/m2
09:04 82.0 °F /  27.8 °C 53.0 °F /  11.7 °C 29.8in /  1009hPa Calm     37% 0.000in /  0mm 585.00 W/m2
09:09 83.0 °F /  28.3 °C 52.0 °F /  11.1 °C 29.8in /  1009hPa Calm     35% 0.000in /  0mm 599.00 W/m2
09:14 83.0 °F /  28.3 °C 53.0 °F /  11.7 °C 29.8in /  1009hPa Calm     35% 0.000in /  0mm 613.00 W/m2
09:19 84.0 °F /  28.9 °C 51.0 °F /  10.6 °C 29.8in /  1009hPa Calm     33% 0.000in /  0mm 622.00 W/m2
09:24 85.0 °F /  29.4 °C 52.0 °F /  11.1 °C 29.8in /  1009hPa Calm     33% 0.000in /  0mm 638.00 W/m2
09:29 86.0 °F /  30 °C 49.0 °F /  9.4 °C 29.8in /  1009hPa Calm     28% 0.000in /  0mm 652.00 W/m2
09:34 87.0 °F /  30.6 °C 51.0 °F /  10.6 °C 29.8in /  1009hPa NE 2mph /  3.2km/h 2mph /  3.2km/h 29% 0.000in /  0mm 668.00 W/m2
09:39 89.0 °F /  31.7 °C 50.0 °F /  10 °C 29.8in /  1009hPa Calm   2mph /  3.2km/h 27% 0.000in /  0mm 682.00 W/m2
09:44 89.0 °F /  31.7 °C 49.0 °F /  9.4 °C 29.8in /  1009hPa NE 2mph /  3.2km/h   26% 0.000in /  0mm 693.00 W/m2
09:49 90.0 °F /  32.2 °C 49.0 °F /  9.4 °C 29.8in /  1009hPa NNW 2mph /  3.2km/h 2mph /  3.2km/h 25% 0.000in /  0mm 701.00 W/m2
09:54 91.0 °F /  32.8 °C 49.0 °F /  9.4 °C 29.8in /  1009hPa West 2mph /  3.2km/h 2mph /  3.2km/h 24% 0.000in /  0mm 717.00 W/m2
09:59 92.0 °F /  33.3 °C 48.0 °F /  8.9 °C 29.8in /  1009hPa SSW 2mph /  3.2km/h 2mph /  3.2km/h 23% 0.000in /  0mm 729.00 W/m2
10:04 93.0 °F /  33.9 °C 48.0 °F /  8.9 °C 29.8in /  1009hPa SSW 2mph /  3.2km/h 2mph /  3.2km/h 22% 0.000in /  0mm 749.00 W/m2
10:09 93.0 °F /  33.9 °C 49.0 °F /  9.4 °C 29.8in /  1009hPa SW 4mph /  6.4km/h 2mph /  3.2km/h 22% 0.000in /  0mm 761.00 W/m2
10:14 94.0 °F /  34.4 °C 49.0 °F /  9.4 °C 29.8in /  1009hPa SW 2mph /  3.2km/h 3mph /  4.8km/h 22% 0.000in /  0mm 772.00 W/m2
10:19 94.0 °F /  34.4 °C 49.0 °F /  9.4 °C 29.8in /  1009hPa Calm   2mph /  3.2km/h 22% 0.000in /  0mm 782.00 W/m2
10:24 95.0 °F /  35 °C 50.0 °F /  10 °C 29.8in /  1009hPa ESE 2mph /  3.2km/h 2mph /  3.2km/h 22% 0.000in /  0mm 798.00 W/m2
10:29 95.0 °F /  35 °C 50.0 °F /  10 °C 29.8in /  1009hPa SSE 2mph /  3.2km/h 2mph /  3.2km/h 22% 0.000in /  0mm 802.00 W/m2
10:34 96.0 °F /  35.6 °C 51.0 °F /  10.6 °C 29.8in /  1009hPa SSW 2mph /  3.2km/h 2mph /  3.2km/h 22% 0.000in /  0mm 810.00 W/m2
10:39 96.0 °F /  35.6 °C 51.0 °F /  10.6 °C 29.8in /  1009hPa SE 2mph /  3.2km/h 2mph /  3.2km/h 22% 0.000in /  0mm 819.00 W/m2
10:44 96.0 °F /  35.6 °C 51.0 °F /  10.6 °C 29.8in /  1009hPa SSW 4mph /  6.4km/h 2mph /  3.2km/h 22% 0.000in /  0mm 835.00 W/m2
10:49 97.0 °F /  36.1 °C 50.0 °F /  10 °C 29.8in /  1009hPa WSW 2mph /  3.2km/h 3mph /  4.8km/h 21% 0.000in /  0mm 840.00 W/m2
10:54 97.0 °F /  36.1 °C 51.0 °F /  10.6 °C 29.8in /  1009hPa SW 2mph /  3.2km/h 2mph /  3.2km/h 21% 0.000in /  0mm 849.00 W/m2
10:59 97.0 °F /  36.1 °C 52.0 °F /  11.1 °C 29.8in /  1009hPa South 2mph /  3.2km/h 2mph /  3.2km/h 22% 0.000in /  0mm 860.00 W/m2
11:04 97.0 °F /  36.1 °C 51.0 °F /  10.6 °C 29.8in /  1009hPa SW 6mph /  9.7km/h 5mph /  8km/h 21% 0.000in /  0mm 870.00 W/m2
11:09 98.0 °F /  36.7 °C 48.0 °F /  8.9 °C 29.8in /  1009hPa SW 6mph /  9.7km/h 6mph /  9.7km/h 19% 0.000in /  0mm 875.00 W/m2
11:14 98.0 °F /  36.7 °C 49.0 °F /  9.4 °C 29.8in /  1009hPa SSE 4mph /  6.4km/h 6mph /  9.7km/h 19% 0.000in /  0mm 886.00 W/m2
11:19 98.0 °F /  36.7 °C 49.0 °F /  9.4 °C 29.8in /  1009hPa SSE 4mph /  6.4km/h 2mph /  3.2km/h 19% 0.000in /  0mm 896.00 W/m2
11:24 99.0 °F /  37.2 °C 46.0 °F /  7.8 °C 29.8in /  1009hPa SW 2mph /  3.2km/h 3mph /  4.8km/h 17% 0.000in /  0mm 904.00 W/m2
11:29 99.0 °F /  37.2 °C 46.0 °F /  7.8 °C 29.8in /  1009hPa SE 7mph /  11.3km/h 2mph /  3.2km/h 17% 0.000in /  0mm 912.00 W/m2
11:34 99.0 °F /  37.2 °C 46.0 °F /  7.8 °C 29.8in /  1009hPa SSW 7mph /  11.3km/h 7mph /  11.3km/h 17% 0.000in /  0mm 919.00 W/m2
11:39 99.0 °F /  37.2 °C 44.0 °F /  6.7 °C 29.8in /  1009hPa SSW 7mph /  11.3km/h 6mph /  9.7km/h 15% 0.000in /  0mm 919.00 W/m2
11:44 100.0 °F /  37.8 °C 44.0 °F /  6.7 °C 29.8in /  1009hPa SW 6mph /  9.7km/h 7mph /  11.3km/h 15% 0.000in /  0mm 928.00 W/m2
11:49 100.0 °F /  37.8 °C 45.0 °F /  7.2 °C 29.8in /  1009hPa SSE 5mph /  8km/h 3mph /  4.8km/h 16% 0.000in /  0mm 932.00 W/m2
11:54 100.0 °F /  37.8 °C 46.0 °F /  7.8 °C 29.8in /  1009hPa WSW 7mph /  11.3km/h 6mph /  9.7km/h 16% 0.000in /  0mm 937.00 W/m2
11:59 100.0 °F /  37.8 °C 49.0 °F /  9.4 °C 29.8in /  1009hPa SW 7mph /  11.3km/h 7mph /  11.3km/h 18% 0.000in /  0mm 937.00 W/m2
12:04 100.0 °F /  37.8 °C 44.0 °F /  6.7 °C 29.8in /  1009hPa SW 6mph /  9.7km/h 7mph /  11.3km/h 15% 0.000in /  0mm 942.00 W/m2
12:09 100.0 °F /  37.8 °C 44.0 °F /  6.7 °C 29.8in /  1009hPa East 4mph /  6.4km/h 6mph /  9.7km/h 15% 0.000in /  0mm 947.00 W/m2
12:14 101.0 °F /  38.3 °C 46.0 °F /  7.8 °C 29.8in /  1009hPa SSE 9mph /  14.5km/h 7mph /  11.3km/h 16% 0.000in /  0mm 951.00 W/m2
12:19 101.0 °F /  38.3 °C 43.0 °F /  6.1 °C 29.8in /  1009hPa SE 4mph /  6.4km/h 9mph /  14.5km/h 14% 0.000in /  0mm 956.00 W/m2
12:24 101.0 °F /  38.3 °C 43.0 °F /  6.1 °C 29.8in /  1009hPa SE 2mph /  3.2km/h 3mph /  4.8km/h 14% 0.000in /  0mm 958.00 W/m2
12:29 102.0 °F /  38.9 °C 44.0 °F /  6.7 °C 29.8in /  1009hPa SSE 4mph /  6.4km/h 2mph /  3.2km/h 14% 0.000in /  0mm 958.00 W/m2
12:34 102.0 °F /  38.9 °C 44.0 °F /  6.7 °C 29.8in /  1009hPa South 7mph /  11.3km/h 3mph /  4.8km/h 14% 0.000in /  0mm 962.00 W/m2
12:39 102.0 °F /  38.9 °C 44.0 °F /  6.7 °C 29.8in /  1009hPa SE 6mph /  9.7km/h 7mph /  11.3km/h 14% 0.000in /  0mm 960.00 W/m2
12:44 102.0 °F /  38.9 °C 46.0 °F /  7.8 °C 29.8in /  1009hPa West 2mph /  3.2km/h 6mph /  9.7km/h 15% 0.000in /  0mm 962.00 W/m2
12:49 102.0 °F /  38.9 °C 42.0 °F /  5.6 °C 29.8in /  1009hPa South 11mph /  17.7km/h 4mph /  6.4km/h 13% 0.000in /  0mm 962.00 W/m2
12:54 103.0 °F /  39.4 °C 44.0 °F /  6.7 °C 29.8in /  1009hPa SSW 4mph /  6.4km/h 10mph /  16.1km/h 14% 0.000in /  0mm 962.00 W/m2
12:59 103.0 °F /  39.4 °C 44.0 °F /  6.7 °C 29.8in /  1009hPa SSE 9mph /  14.5km/h 9mph /  14.5km/h 14% 0.000in /  0mm 960.00 W/m2
13:04 103.0 °F /  39.4 °C 46.0 °F /  7.8 °C 29.8in /  1009hPa South 4mph /  6.4km/h 9mph /  14.5km/h 15% 0.000in /  0mm 956.00 W/m2
13:09 103.0 °F /  39.4 °C 48.0 °F /  8.9 °C 29.8in /  1009hPa SE 7mph /  11.3km/h 5mph /  8km/h 16% 0.000in /  0mm 958.00 W/m2
13:14 103.0 °F /  39.4 °C 45.0 °F /  7.2 °C 29.8in /  1009hPa South 7mph /  11.3km/h 7mph /  11.3km/h 14% 0.000in /  0mm 956.00 W/m2
13:19 103.0 °F /  39.4 °C 47.0 °F /  8.3 °C 29.8in /  1009hPa South 9mph /  14.5km/h 9mph /  14.5km/h 15% 0.000in /  0mm 954.00 W/m2
13:24 104.0 °F /  40 °C 47.0 °F /  8.3 °C 29.8in /  1009hPa SSE 4mph /  6.4km/h 9mph /  14.5km/h 15% 0.000in /  0mm 953.00 W/m2
13:29 104.0 °F /  40 °C 44.0 °F /  6.7 °C 29.8in /  1009hPa East 4mph /  6.4km/h 3mph /  4.8km/h 13% 0.000in /  0mm 949.00 W/m2
13:34 105.0 °F /  40.6 °C 48.0 °F /  8.9 °C 29.8in /  1009hPa SE 7mph /  11.3km/h 5mph /  8km/h 15% 0.000in /  0mm 946.00 W/m2
13:39 105.0 °F /  40.6 °C 42.0 °F /  5.6 °C 29.8in /  1009hPa WSW 7mph /  11.3km/h 7mph /  11.3km/h 12% 0.000in /  0mm 946.00 W/m2
13:44 105.0 °F /  40.6 °C 44.0 °F /  6.7 °C 29.8in /  1009hPa West 7mph /  11.3km/h 7mph /  11.3km/h 13% 0.000in /  0mm 940.00 W/m2
13:49 105.0 °F /  40.6 °C 44.0 °F /  6.7 °C 29.7in /  1005.6hPa WSW 4mph /  6.4km/h 7mph /  11.3km/h 13% 0.000in /  0mm 933.00 W/m2
13:54 105.0 °F /  40.6 °C 44.0 °F /  6.7 °C 29.7in /  1005.6hPa SW 6mph /  9.7km/h 3mph /  4.8km/h 13% 0.000in /  0mm 930.00 W/m2
13:59 105.0 °F /  40.6 °C 42.0 °F /  5.6 °C 29.7in /  1005.6hPa WSW 2mph /  3.2km/h 6mph /  9.7km/h 12% 0.000in /  0mm 923.00 W/m2
14:04 105.0 °F /  40.6 °C 42.0 °F /  5.6 °C 29.7in /  1005.6hPa West 7mph /  11.3km/h 7mph /  11.3km/h 12% 0.000in /  0mm 914.00 W/m2
14:09 105.0 °F /  40.6 °C 44.0 °F /  6.7 °C 29.7in /  1005.6hPa SSW 4mph /  6.4km/h 7mph /  11.3km/h 13% 0.000in /  0mm 909.00 W/m2
14:14 105.0 °F /  40.6 °C 44.0 °F /  6.7 °C 29.7in /  1005.6hPa SE 4mph /  6.4km/h 3mph /  4.8km/h 13% 0.000in /  0mm 905.00 W/m2
14:19 106.0 °F /  41.1 °C 47.0 °F /  8.3 °C 29.7in /  1005.6hPa East 6mph /  9.7km/h 3mph /  4.8km/h 14% 0.000in /  0mm 900.00 W/m2
14:24 106.0 °F /  41.1 °C 45.0 °F /  7.2 °C 29.7in /  1005.6hPa ESE 12mph /  19.3km/h 6mph /  9.7km/h 13% 0.000in /  0mm 895.00 W/m2
14:29 106.0 °F /  41.1 °C 45.0 °F /  7.2 °C 29.7in /  1005.6hPa SSW 13mph /  20.9km/h 13mph /  20.9km/h 13% 0.000in /  0mm 888.00 W/m2
14:34 107.0 °F /  41.7 °C 43.0 °F /  6.1 °C 29.7in /  1005.6hPa SW 6mph /  9.7km/h 6mph /  9.7km/h 12% 0.000in /  0mm 882.00 W/m2
14:39 107.0 °F /  41.7 °C 44.0 °F /  6.7 °C 29.7in /  1005.6hPa West 9mph /  14.5km/h 8mph /  12.9km/h 12% 0.000in /  0mm 874.00 W/m2
14:44 107.0 °F /  41.7 °C 46.0 °F /  7.8 °C 29.7in /  1005.6hPa West 9mph /  14.5km/h 9mph /  14.5km/h 13% 0.000in /  0mm 865.00 W/m2
14:49 107.0 °F /  41.7 °C 44.0 °F /  6.7 °C 29.7in /  1005.6hPa SSW 4mph /  6.4km/h 9mph /  14.5km/h 12% 0.000in /  0mm 854.00 W/m2
14:54 107.0 °F /  41.7 °C 41.0 °F /  5 °C 29.7in /  1005.6hPa SSE 7mph /  11.3km/h 4mph /  6.4km/h 11% 0.000in /  0mm 846.00 W/m2
14:59 107.0 °F /  41.7 °C 44.0 °F /  6.7 °C 29.7in /  1005.6hPa SSW 7mph /  11.3km/h 7mph /  11.3km/h 12% 0.000in /  0mm 837.00 W/m2
15:04 107.0 °F /  41.7 °C 43.0 °F /  6.1 °C 29.7in /  1005.6hPa SSW 6mph /  9.7km/h 7mph /  11.3km/h 12% 0.000in /  0mm 826.00 W/m2
15:09 107.0 °F /  41.7 °C 44.0 °F /  6.7 °C 29.7in /  1005.6hPa WSW 9mph /  14.5km/h 6mph /  9.7km/h 12% 0.000in /  0mm 816.00 W/m2
15:14 107.0 °F /  41.7 °C 41.0 °F /  5 °C 29.7in /  1005.6hPa SW 11mph /  17.7km/h 9mph /  14.5km/h 11% 0.000in /  0mm 810.00 W/m2
15:19 107.0 °F /  41.7 °C 46.0 °F /  7.8 °C 29.7in /  1005.6hPa South 9mph /  14.5km/h 10mph /  16.1km/h 13% 0.000in /  0mm 798.00 W/m2
15:24 107.0 °F /  41.7 °C 46.0 °F /  7.8 °C 29.7in /  1005.6hPa SW 6mph /  9.7km/h 6mph /  9.7km/h 13% 0.000in /  0mm 788.00 W/m2
15:29 107.0 °F /  41.7 °C 44.0 °F /  6.7 °C 29.7in /  1005.6hPa West 9mph /  14.5km/h 7mph /  11.3km/h 12% 0.000in /  0mm 775.00 W/m2
15:34 107.0 °F /  41.7 °C 42.0 °F /  5.6 °C 29.7in /  1005.6hPa SW 9mph /  14.5km/h 9mph /  14.5km/h 11% 0.000in /  0mm 766.00 W/m2
15:39 107.0 °F /  41.7 °C 42.0 °F /  5.6 °C 29.7in /  1005.6hPa SW 16mph /  25.7km/h 9mph /  14.5km/h 11% 0.000in /  0mm 751.00 W/m2
15:44 107.0 °F /  41.7 °C 41.0 °F /  5 °C 29.7in /  1005.6hPa WSW 16mph /  25.7km/h 16mph /  25.7km/h 11% 0.000in /  0mm 740.00 W/m2
15:49 107.0 °F /  41.7 °C 44.0 °F /  6.7 °C 29.7in /  1005.6hPa SSW 18mph /  29km/h 11mph /  17.7km/h 12% 0.000in /  0mm 729.00 W/m2
15:54 107.0 °F /  41.7 °C 41.0 °F /  5 °C 29.7in /  1005.6hPa SSW 10mph /  16.1km/h 17mph /  27.4km/h 11% 0.000in /  0mm 714.00 W/m2
15:59 107.0 °F /  41.7 °C 39.0 °F /  3.9 °C 29.7in /  1005.6hPa SSW 6mph /  9.7km/h 7mph /  11.3km/h 10% 0.000in /  0mm 703.00 W/m2
16:04 107.0 °F /  41.7 °C 42.0 °F /  5.6 °C 29.7in /  1005.6hPa SSW 6mph /  9.7km/h 6mph /  9.7km/h 11% 0.000in /  0mm 694.00 W/m2
16:09 107.0 °F /  41.7 °C 41.0 °F /  5 °C 29.7in /  1005.6hPa SSW 7mph /  11.3km/h 6mph /  9.7km/h 11% 0.000in /  0mm 680.00 W/m2
16:14 107.0 °F /  41.7 °C 39.0 °F /  3.9 °C 29.7in /  1005.6hPa SW 7mph /  11.3km/h 7mph /  11.3km/h 10% 0.000in /  0mm 666.00 W/m2
16:19 108.0 °F /  42.2 °C 39.0 °F /  3.9 °C 29.7in /  1005.6hPa SSE 7mph /  11.3km/h 7mph /  11.3km/h 10% 0.000in /  0mm 654.00 W/m2
16:24 108.0 °F /  42.2 °C 37.0 °F /  2.8 °C 29.7in /  1005.6hPa WSW 7mph /  11.3km/h 7mph /  11.3km/h 9% 0.000in /  0mm 642.00 W/m2
16:29 108.0 °F /  42.2 °C 37.0 °F /  2.8 °C 29.7in /  1005.6hPa SW 11mph /  17.7km/h 8mph /  12.9km/h 9% 0.000in /  0mm 629.00 W/m2
16:34 108.0 °F /  42.2 °C 44.0 °F /  6.7 °C 29.7in /  1005.6hPa SW 7mph /  11.3km/h 10mph /  16.1km/h 12% 0.000in /  0mm 613.00 W/m2
16:39 108.0 °F /  42.2 °C 42.0 °F /  5.6 °C 29.7in /  1005.6hPa SW 11mph /  17.7km/h 6mph /  9.7km/h 11% 0.000in /  0mm 596.00 W/m2
16:44 108.0 °F /  42.2 °C 37.0 °F /  2.8 °C 29.7in /  1005.6hPa SW 9mph /  14.5km/h 10mph /  16.1km/h 9% 0.000in /  0mm 582.00 W/m2
16:49 108.0 °F /  42.2 °C 39.0 °F /  3.9 °C 29.7in /  1005.6hPa South 6mph /  9.7km/h 9mph /  14.5km/h 10% 0.000in /  0mm 570.00 W/m2
16:54 108.0 °F /  42.2 °C 39.0 °F /  3.9 °C 29.7in /  1005.6hPa SSW 7mph /  11.3km/h 6mph /  9.7km/h 10% 0.000in /  0mm 554.00 W/m2
16:59 108.0 °F /  42.2 °C 42.0 °F /  5.6 °C 29.7in /  1005.6hPa WSW 6mph /  9.7km/h 7mph /  11.3km/h 11% 0.000in /  0mm 540.00 W/m2
17:04 108.0 °F /  42.2 °C 42.0 °F /  5.6 °C 29.7in /  1005.6hPa South 4mph /  6.4km/h 6mph /  9.7km/h 11% 0.000in /  0mm 527.00 W/m2
17:09 108.0 °F /  42.2 °C 40.0 °F /  4.4 °C 29.7in /  1005.6hPa WSW 4mph /  6.4km/h 3mph /  4.8km/h 10% 0.000in /  0mm 512.00 W/m2
17:14 108.0 °F /  42.2 °C 37.0 °F /  2.8 °C 29.7in /  1005.6hPa SSW 7mph /  11.3km/h 4mph /  6.4km/h 9% 0.000in /  0mm 496.00 W/m2
17:19 108.0 °F /  42.2 °C 37.0 °F /  2.8 °C 29.7in /  1005.6hPa SW 7mph /  11.3km/h 6mph /  9.7km/h 9% 0.000in /  0mm 480.00 W/m2
17:24 108.0 °F /  42.2 °C 40.0 °F /  4.4 °C 29.7in /  1005.6hPa SW 2mph /  3.2km/h 7mph /  11.3km/h 10% 0.000in /  0mm 464.00 W/m2
17:29 108.0 °F /  42.2 °C 42.0 °F /  5.6 °C 29.7in /  1005.6hPa SSW 2mph /  3.2km/h 2mph /  3.2km/h 11% 0.000in /  0mm 446.00 W/m2
17:34 108.0 °F /  42.2 °C 42.0 °F /  5.6 °C 29.7in /  1005.6hPa SSE 4mph /  6.4km/h 2mph /  3.2km/h 11% 0.000in /  0mm 434.00 W/m2
17:39 108.0 °F /  42.2 °C 42.0 °F /  5.6 °C 29.7in /  1005.6hPa South 13mph /  20.9km/h 6mph /  9.7km/h 11% 0.000in /  0mm 418.00 W/m2
17:43 108.0 °F /  42.2 °C 34.0 °F /  1.1 °C 29.7in /  1005.6hPa SSW 7mph /  11.3km/h 13mph /  20.9km/h 8% 0.000in /  0mm 401.00 W/m2
17:49 108.0 °F /  42.2 °C 37.0 °F /  2.8 °C 29.7in /  1005.6hPa WSW 7mph /  11.3km/h 7mph /  11.3km/h 9% 0.000in /  0mm 383.00 W/m2
17:54 108.0 °F /  42.2 °C 37.0 °F /  2.8 °C 29.7in /  1005.6hPa SW 4mph /  6.4km/h 7mph /  11.3km/h 9% 0.000in /  0mm 367.00 W/m2
17:59 107.0 °F /  41.7 °C 36.0 °F /  2.2 °C 29.7in /  1005.6hPa SW 4mph /  6.4km/h 3mph /  4.8km/h 9% 0.000in /  0mm 352.00 W/m2
18:04 107.0 °F /  41.7 °C 39.0 °F /  3.9 °C 29.7in /  1005.6hPa SSW 6mph /  9.7km/h 3mph /  4.8km/h 10% 0.000in /  0mm 292.00 W/m2
18:09 107.0 °F /  41.7 °C 41.0 °F /  5 °C 29.7in /  1005.6hPa SSW 4mph /  6.4km/h 6mph /  9.7km/h 11% 0.000in /  0mm 167.00 W/m2
18:14 105.0 °F /  40.6 °C 46.0 °F /  7.8 °C 29.7in /  1005.6hPa SW 4mph /  6.4km/h 3mph /  4.8km/h 14% 0.000in /  0mm 56.00 W/m2
18:19 105.0 °F /  40.6 °C 46.0 °F /  7.8 °C 29.7in /  1005.6hPa SSW 2mph /  3.2km/h 2mph /  3.2km/h 14% 0.000in /  0mm 53.00 W/m2
18:24 104.0 °F /  40 °C 43.0 °F /  6.1 °C 29.7in /  1005.6hPa SSW 2mph /  3.2km/h 2mph /  3.2km/h 13% 0.000in /  0mm 47.00 W/m2
18:29 103.0 °F /  39.4 °C 42.0 °F /  5.6 °C 29.7in /  1005.6hPa SW 4mph /  6.4km/h 3mph /  4.8km/h 13% 0.000in /  0mm 44.00 W/m2
18:34 103.0 °F /  39.4 °C 40.0 °F /  4.4 °C 29.7in /  1005.6hPa SW 2mph /  3.2km/h 3mph /  4.8km/h 12% 0.000in /  0mm 40.00 W/m2
18:39 102.0 °F /  38.9 °C 44.0 °F /  6.7 °C 29.7in /  1005.6hPa SSW 4mph /  6.4km/h 2mph /  3.2km/h 14% 0.000in /  0mm 37.00 W/m2
18:44 102.0 °F /  38.9 °C 47.0 °F /  8.3 °C 29.7in /  1005.6hPa SSW 4mph /  6.4km/h 3mph /  4.8km/h 16% 0.000in /  0mm 39.00 W/m2
18:49 101.0 °F /  38.3 °C 43.0 °F /  6.1 °C 29.7in /  1005.6hPa SSW 2mph /  3.2km/h 3mph /  4.8km/h 14% 0.000in /  0mm 39.00 W/m2
18:54 101.0 °F /  38.3 °C 46.0 °F /  7.8 °C 29.7in /  1005.6hPa SSW 2mph /  3.2km/h 2mph /  3.2km/h 16% 0.000in /  0mm 42.00 W/m2
18:59 101.0 °F /  38.3 °C 48.0 °F /  8.9 °C 29.7in /  1005.6hPa SSW 4mph /  6.4km/h 2mph /  3.2km/h 17% 0.000in /  0mm 47.00 W/m2
19:04 100.0 °F /  37.8 °C 47.0 °F /  8.3 °C 29.7in /  1005.6hPa SSW 5mph /  8km/h 3mph /  4.8km/h 17% 0.000in /  0mm 47.00 W/m2
19:09 100.0 °F /  37.8 °C 42.0 °F /  5.6 °C 29.7in /  1005.6hPa SSW 6mph /  9.7km/h 6mph /  9.7km/h 14% 0.000in /  0mm 30.00 W/m2
El Dorado Weather
Compliments of Weather Underground - 2 mb